Time;durP1;ratioP1;P1;durP2;ratioP2;P2;SDS_P1;SDS_P2;PMS_P1;PMS_P2;Temp;Humidity;BMP_temperature;BMP_pressure;BME280_temperature;BME280_humidity;BME280_pressure;Samples;Min_cycle;Max_cycle;Signal;HPM_P1;HPM_P2
2022/09/15 00:00:29;;;;;;;;;;;;;;;24.39;57.03;98406.00;4481849;31;34819;-62
2022/09/15 00:02:57;;;;;;;;;;;;;;;24.39;57.54;98391.50;4484832;31;33985;-62
2022/09/15 00:05:24;;;;;;;;;;;;;;;24.40;57.86;98382.25;4482426;31;34179;-62
2022/09/15 00:07:51;;;;;;;;;;;;;;;24.36;58.76;98360.00;4480706;31;33271;-62
2022/09/15 00:10:19;;;;;;;;;;;;;;;23.96;60.46;98372.69;4487548;31;34963;-62
2022/09/15 00:12:46;;;;;;;;;;;;;;;23.94;60.58;98394.78;4473920;31;33715;-62
2022/09/15 00:15:14;;;;;;;;;;;;;;;23.39;62.84;98411.28;4484871;31;32797;-63
2022/09/15 00:17:42;;;;;;;;;;;;;;;23.87;61.27;98400.34;4482574;31;32907;-61
2022/09/15 00:20:09;;;;;;;;;;;;;;;24.07;60.49;98408.22;4486439;31;33849;-62
2022/09/15 00:22:36;;;;;;;;;;;;;;;23.99;60.81;98413.22;4482222;31;35562;-61
2022/09/15 00:25:04;;;;;;;;;;;;;;;23.91;61.26;98422.56;4479144;31;32656;-61
2022/09/15 00:27:32;;;;;;;;;;;;;;;23.62;62.46;98438.69;4474018;32;31758;-62
2022/09/15 00:29:59;;;;;;;;;;;;;;;23.43;63.62;98454.25;4491322;31;34138;-61
2022/09/15 00:32:28;;;;;;;;;;;;;;;23.49;63.33;98456.06;4483604;31;33426;-62
2022/09/15 00:34:55;;;;;;;;;;;;;;;23.61;62.93;98455.31;4484037;31;34252;-62
2022/09/15 00:37:22;;;;;;;;;;;;;;;23.65;62.46;98478.38;4486114;31;33305;-61
2022/09/15 00:39:51;;;;;;;;;;;;;;;23.77;62.25;98486.66;4496061;31;33972;-61
2022/09/15 00:42:19;;;;;;;;;;;;;;;23.63;62.77;98492.28;4489724;31;35341;-61
2022/09/15 00:44:49;;;;;;;;;;;;;;;23.49;63.24;98493.47;4487205;31;33833;-61
2022/09/15 00:47:17;;;;;;;;;;;;;;;23.39;63.41;98490.47;4485041;31;34696;-61
2022/09/15 00:49:46;;;;;;;;;;;;;;;22.96;64.79;98500.37;4482850;32;35311;-61
2022/09/15 00:52:19;;;;;;;;;;;;;;;23.19;64.18;98504.34;4480186;32;34919;-61
2022/09/15 00:54:54;;;;;;;;;;;;;;;23.14;64.38;98499.53;4471080;31;34961;-61
2022/09/15 00:57:24;;;;;;;;;;;;;;;22.97;65.02;98488.38;4479810;32;33367;-61
2022/09/15 00:59:52;;;;;;;;;;;;;;;23.15;64.75;98486.75;4471804;32;33273;-61
2022/09/15 01:02:27;;;;;;;;;;;;;;;23.24;64.43;98472.56;4485793;31;34824;-61
2022/09/15 01:04:55;;;;;;;;;;;;;;;23.29;64.16;98491.00;4475941;31;33629;-61
2022/09/15 01:07:32;;;;;;;;;;;;;;;23.35;64.06;98481.91;4480373;32;32399;-61
2022/09/15 01:10:01;;;;;;;;;;;;;;;23.38;64.07;98475.16;4470112;31;33967;-61
2022/09/15 01:12:28;;;;;;;;;;;;;;;23.43;63.90;98473.38;4484225;31;32329;-61
2022/09/15 01:14:55;;;;;;;;;;;;;;;23.44;63.79;98472.34;4500152;31;35038;-61
2022/09/15 01:17:32;;;;;;;;;;;;;;;23.27;64.22;98468.53;4487116;31;33567;-61
2022/09/15 01:20:10;;;;;;;;;;;;;;;23.35;63.84;98462.78;4493637;31;35737;-61
2022/09/15 01:22:48;;;;;;;;;;;;;;;23.20;64.18;98473.25;4487699;31;34141;-61
2022/09/15 01:25:39;;;;;;;;;;;;;;;23.31;64.02;98469.78;4484903;31;33965;-61
2022/09/15 01:28:33;;;;;;;;;;;;;;;23.41;63.54;98467.34;4486214;31;33992;-61
2022/09/15 01:31:03;;;;;;;;;;;;;;;23.49;63.01;98467.00;4489600;31;34231;-61
2022/09/15 01:33:43;;;;;;;;;;;;;;;23.42;62.80;98466.25;4482406;32;33286;-61
2022/09/15 01:36:12;;;;;;;;;;;;;;;23.20;62.95;98474.06;4470036;31;34088;-61
2022/09/15 01:38:43;;;;;;;;;;;;;;;23.63;61.46;98469.59;4471040;31;33275;-61
2022/09/15 01:41:13;;;;;;;;;;;;;;;23.56;61.51;98479.75;4479658;32;33890;-63
2022/09/15 01:43:48;;;;;;;;;;;;;;;23.54;61.04;98470.97;4485176;31;34072;-63
2022/09/15 01:46:16;;;;;;;;;;;;;;;23.66;60.67;98475.44;4496869;31;34100;-62
2022/09/15 01:48:43;;;;;;;;;;;;;;;23.79;59.84;98477.19;4482198;31;34018;-62
2022/09/15 01:51:11;;;;;;;;;;;;;;;23.55;61.01;98483.53;4474601;31;34281;-62
2022/09/15 01:53:38;;;;;;;;;;;;;;;23.81;59.71;98480.50;4485344;31;35246;-63
2022/09/15 01:56:07;;;;;;;;;;;;;;;23.79;59.78;98481.78;4491192;31;34235;-62
2022/09/15 01:58:34;;;;;;;;;;;;;;;23.76;59.63;98477.63;4491295;31;34599;-62
2022/09/15 02:01:06;;;;;;;;;;;;;;;23.94;59.23;98482.22;4480794;31;34607;-62
2022/09/15 02:03:54;;;;;;;;;;;;;;;23.90;59.41;98478.28;4486636;31;34185;-62
2022/09/15 02:06:23;;;;;;;;;;;;;;;23.75;59.76;98478.69;4485609;31;34596;-63
2022/09/15 02:08:53;;;;;;;;;;;;;;;23.86;59.52;98477.09;4471821;31;32034;-62
2022/09/15 02:11:24;;;;;;;;;;;;;;;23.86;59.37;98474.34;4480704;31;33883;-62
2022/09/15 02:13:51;;;;;;;;;;;;;;;23.59;59.57;98477.37;4501611;31;34402;-62
2022/09/15 02:16:22;;;;;;;;;;;;;;;23.67;59.45;98470.78;4500384;31;35140;-63
2022/09/15 02:18:50;;;;;;;;;;;;;;;23.71;59.40;98472.84;4473795;32;34369;-62
2022/09/15 02:21:18;;;;;;;;;;;;;;;23.44;60.55;98479.69;4478626;31;35205;-62
2022/09/15 02:23:49;;;;;;;;;;;;;;;23.31;60.84;98477.97;4483541;31;34246;-62
2022/09/15 02:26:18;;;;;;;;;;;;;;;23.68;59.38;98472.44;4476137;31;32398;-63
2022/09/15 02:28:46;;;;;;;;;;;;;;;23.57;59.45;98475.97;4483165;31;33100;-62
2022/09/15 02:31:14;;;;;;;;;;;;;;;23.32;60.21;98485.06;4495109;31;35012;-62
2022/09/15 02:33:43;;;;;;;;;;;;;;;23.48;59.38;98480.91;4486657;31;34300;-62
2022/09/15 02:36:10;;;;;;;;;;;;;;;23.49;59.54;98483.38;4485814;31;35193;-62
2022/09/15 02:38:40;;;;;;;;;;;;;;;23.69;59.02;98487.78;4483574;31;34180;-62
2022/09/15 02:41:07;;;;;;;;;;;;;;;23.47;59.70;98471.06;4479761;31;35205;-62
2022/09/15 02:43:42;;;;;;;;;;;;;;;23.51;59.89;98476.87;4480292;31;34260;-62
2022/09/15 02:46:10;;;;;;;;;;;;;;;23.85;58.65;98473.53;4468837;32;34729;-62
2022/09/15 02:48:37;;;;;;;;;;;;;;;23.84;58.74;98471.84;4494716;31;34404;-62
2022/09/15 02:51:04;;;;;;;;;;;;;;;24.06;58.00;98471.34;4493060;31;33922;-62
2022/09/15 02:53:32;;;;;;;;;;;;;;;24.11;57.87;98469.56;4493413;31;34594;-62
2022/09/15 02:55:59;;;;;;;;;;;;;;;24.19;57.74;98479.34;4491831;31;33751;-62
2022/09/15 02:58:26;;;;;;;;;;;;;;;24.25;57.50;98478.41;4483044;31;31512;-62
2022/09/15 03:00:55;;;;;;;;;;;;;;;24.19;57.80;98482.06;4489894;31;33957;-62
2022/09/15 03:03:22;;;;;;;;;;;;;;;24.20;57.85;98475.53;4490804;31;34157;-62
2022/09/15 03:05:49;;;;;;;;;;;;;;;24.14;58.22;98495.59;4483585;31;35386;-62
2022/09/15 03:08:17;;;;;;;;;;;;;;;24.15;58.30;98489.91;4485987;31;33222;-62
2022/09/15 03:10:44;;;;;;;;;;;;;;;24.16;58.58;98490.72;4489577;31;34113;-62
2022/09/15 03:13:11;;;;;;;;;;;;;;;24.24;58.22;98487.69;4481686;31;33726;-62
2022/09/15 03:15:39;;;;;;;;;;;;;;;24.22;58.35;98492.53;4485493;31;34220;-62
2022/09/15 03:18:06;;;;;;;;;;;;;;;24.22;58.34;98495.28;4499299;31;32603;-62
2022/09/15 03:20:33;;;;;;;;;;;;;;;24.12;58.63;98487.62;4496620;31;33993;-62
2022/09/15 03:23:02;;;;;;;;;;;;;;;24.14;58.80;98490.13;4483183;31;34034;-62
2022/09/15 03:25:29;;;;;;;;;;;;;;;24.00;59.22;98486.75;4482067;31;33571;-62
2022/09/15 03:27:57;;;;;;;;;;;;;;;24.04;58.97;98487.94;4483056;31;32022;-62
2022/09/15 03:30:25;;;;;;;;;;;;;;;24.16;58.48;98488.00;4488186;31;33072;-62
2022/09/15 03:32:52;;;;;;;;;;;;;;;24.13;58.48;98480.25;4481801;31;34021;-62
2022/09/15 03:35:19;;;;;;;;;;;;;;;24.20;58.28;98486.47;4487778;31;33879;-62
2022/09/15 03:37:47;;;;;;;;;;;;;;;24.19;58.13;98487.53;4482686;31;34352;-62
2022/09/15 03:40:14;;;;;;;;;;;;;;;24.00;58.69;98480.47;4480791;31;34098;-62
2022/09/15 03:42:41;;;;;;;;;;;;;;;23.89;59.23;98474.72;4484400;31;33894;-62
2022/09/15 03:45:09;;;;;;;;;;;;;;;23.71;59.78;98472.84;4480782;31;33809;-61
2022/09/15 03:47:36;;;;;;;;;;;;;;;23.97;59.23;98487.22;4480319;31;33066;-62
2022/09/15 03:50:03;;;;;;;;;;;;;;;24.03;59.13;98493.66;4482365;31;34440;-62
2022/09/15 03:52:31;;;;;;;;;;;;;;;24.04;59.13;98493.41;4480497;31;33183;-62
2022/09/15 03:54:58;;;;;;;;;;;;;;;23.98;59.30;98499.84;4486548;31;32945;-62
2022/09/15 03:57:25;;;;;;;;;;;;;;;23.85;59.81;98508.19;4487435;31;31952;-61
2022/09/15 03:59:53;;;;;;;;;;;;;;;23.93;59.54;98508.72;4482014;31;32581;-61
2022/09/15 04:02:20;;;;;;;;;;;;;;;23.92;59.49;98508.97;4482901;31;34408;-62
2022/09/15 04:04:48;;;;;;;;;;;;;;;23.92;59.45;98507.06;4486001;31;33876;-62
2022/09/15 04:07:15;;;;;;;;;;;;;;;23.89;59.57;98514.87;4488036;31;34347;-62
2022/09/15 04:09:42;;;;;;;;;;;;;;;23.89;59.70;98504.78;4481053;31;33732;-62
2022/09/15 04:12:10;;;;;;;;;;;;;;;23.89;59.75;98501.22;4484917;31;34011;-62
2022/09/15 04:14:37;;;;;;;;;;;;;;;23.94;59.64;98499.44;4486402;31;34251;-62
2022/09/15 04:17:05;;;;;;;;;;;;;;;23.94;59.55;98501.34;4485494;31;33187;-62
2022/09/15 04:19:32;;;;;;;;;;;;;;;23.94;59.51;98502.16;4486134;31;33812;-62
2022/09/15 04:21:59;;;;;;;;;;;;;;;23.75;59.72;98503.28;4486006;31;35414;-62
2022/09/15 04:24:27;;;;;;;;;;;;;;;22.70;61.82;98504.16;4488572;31;34645;-62
2022/09/15 04:26:54;;;;;;;;;;;;;;;23.46;59.50;98500.22;4497457;31;31851;-62
2022/09/15 04:29:22;;;;;;;;;;;;;;;23.10;60.49;98517.44;4497144;31;33856;-61
2022/09/15 04:31:49;;;;;;;;;;;;;;;23.29;60.20;98521.00;4484631;31;34159;-62
2022/09/15 04:34:17;;;;;;;;;;;;;;;23.17;60.90;98531.84;4494273;31;33618;-63
2022/09/15 04:36:45;;;;;;;;;;;;;;;23.48;60.07;98549.16;4484012;31;33310;-61
2022/09/15 04:39:12;;;;;;;;;;;;;;;23.59;59.83;98542.94;4493427;31;34126;-61
2022/09/15 04:41:40;;;;;;;;;;;;;;;23.23;61.41;98536.41;4494609;31;34417;-62
2022/09/15 04:44:07;;;;;;;;;;;;;;;23.04;62.36;98537.44;4483023;32;35081;-62
2022/09/15 04:46:34;;;;;;;;;;;;;;;22.15;65.75;98533.88;4481494;31;33056;-62
2022/09/15 04:49:02;;;;;;;;;;;;;;;22.21;65.94;98522.09;4482411;31;32776;-62
2022/09/15 04:51:30;;;;;;;;;;;;;;;21.82;67.95;98514.97;4498509;31;32958;-66
2022/09/15 04:53:57;;;;;;;;;;;;;;;22.20;66.60;98511.44;4483751;31;34790;-60
2022/09/15 04:56:25;;;;;;;;;;;;;;;21.69;69.17;98498.69;4497536;31;33259;-61
2022/09/15 04:58:54;;;;;;;;;;;;;;;21.88;68.79;98503.19;4480097;31;33952;-61
2022/09/15 05:01:29;;;;;;;;;;;;;;;22.07;67.96;98504.16;4482382;32;34144;-61
2022/09/15 05:03:57;;;;;;;;;;;;;;;22.12;67.91;98509.78;4483219;31;32787;-61
2022/09/15 05:06:25;;;;;;;;;;;;;;;22.29;67.39;98521.03;4482288;31;34061;-61
2022/09/15 05:08:54;;;;;;;;;;;;;;;22.65;66.14;98516.78;4482365;31;34170;-61
2022/09/15 05:11:21;;;;;;;;;;;;;;;22.61;66.14;98524.56;4481764;31;35001;-62
2022/09/15 05:13:48;;;;;;;;;;;;;;;22.74;65.82;98527.19;4482986;31;33836;-61
2022/09/15 05:16:17;;;;;;;;;;;;;;;22.84;65.56;98537.59;4488768;31;33356;-61
2022/09/15 05:18:46;;;;;;;;;;;;;;;22.34;67.89;98548.44;4487134;31;33784;-62
2022/09/15 05:21:14;;;;;;;;;;;;;;;22.32;68.09;98554.13;4481783;31;33221;-62
2022/09/15 05:23:41;;;;;;;;;;;;;;;22.29;68.22;98570.09;4489077;31;34125;-61
2022/09/15 05:26:12;;;;;;;;;;;;;;;22.26;68.67;98570.53;4495272;31;34258;-62
2022/09/15 05:28:40;;;;;;;;;;;;;;;22.49;67.69;98567.22;4484032;31;34444;-61
2022/09/15 05:31:11;;;;;;;;;;;;;;;21.73;70.91;98568.00;4484304;31;34089;-61
2022/09/15 05:33:38;;;;;;;;;;;;;;;22.28;69.10;98577.44;4473286;32;33906;-61
2022/09/15 05:36:06;;;;;;;;;;;;;;;22.29;68.98;98579.09;4483436;32;34996;-61
2022/09/15 05:38:33;;;;;;;;;;;;;;;22.24;69.25;98578.06;4482439;31;34315;-61
2022/09/15 05:41:04;;;;;;;;;;;;;;;22.85;66.74;98573.88;4490905;31;33495;-61
2022/09/15 05:43:32;;;;;;;;;;;;;;;22.99;66.27;98570.03;4490702;31;34059;-61
2022/09/15 05:46:00;;;;;;;;;;;;;;;23.40;64.70;98574.03;4481924;31;34908;-62
2022/09/15 05:48:28;;;;;;;;;;;;;;;23.50;64.41;98588.00;4480470;31;34116;-62
2022/09/15 05:50:55;;;;;;;;;;;;;;;23.48;64.24;98577.31;4482166;31;34335;-61
2022/09/15 05:53:23;;;;;;;;;;;;;;;23.74;63.57;98569.06;4481388;31;34092;-62
2022/09/15 05:55:57;;;;;;;;;;;;;;;23.68;63.75;98559.84;4488481;31;33348;-65
2022/09/15 05:58:25;;;;;;;;;;;;;;;23.72;63.47;98550.16;4484033;31;35159;-64
2022/09/15 06:00:52;;;;;;;;;;;;;;;23.89;62.95;98559.44;4473148;31;32803;-62
2022/09/15 06:03:20;;;;;;;;;;;;;;;24.02;62.59;98568.53;4483847;31;35199;-62
2022/09/15 06:05:47;;;;;;;;;;;;;;;24.21;62.10;98570.16;4466922;31;32864;-62
2022/09/15 06:08:15;;;;;;;;;;;;;;;24.13;62.13;98576.75;4484733;31;35268;-63
2022/09/15 06:10:43;;;;;;;;;;;;;;;24.32;61.61;98579.47;4486861;31;35242;-62
2022/09/15 06:13:10;;;;;;;;;;;;;;;24.27;61.68;98577.44;4483185;31;34376;-62
2022/09/15 06:15:37;;;;;;;;;;;;;;;24.32;61.58;98582.19;4478727;31;33000;-63
2022/09/15 06:18:05;;;;;;;;;;;;;;;23.89;62.79;98594.94;4481428;31;33777;-64
2022/09/15 06:20:33;;;;;;;;;;;;;;;23.90;62.97;98591.16;4480994;31;34422;-64
2022/09/15 06:23:00;;;;;;;;;;;;;;;24.16;62.17;98583.66;4472050;31;35051;-63
2022/09/15 06:25:28;;;;;;;;;;;;;;;24.28;61.90;98587.28;4481486;31;33493;-64
2022/09/15 06:27:55;;;;;;;;;;;;;;;24.35;61.65;98595.41;4480608;31;34304;-63
2022/09/15 06:30:22;;;;;;;;;;;;;;;24.36;61.47;98611.56;4486492;31;35302;-63
2022/09/15 06:32:50;;;;;;;;;;;;;;;24.45;61.43;98609.38;4481208;31;33300;-63
2022/09/15 06:35:17;;;;;;;;;;;;;;;24.52;61.35;98599.19;4481374;31;33128;-64
2022/09/15 06:37:44;;;;;;;;;;;;;;;24.53;61.16;98606.34;4477603;31;33562;-63
2022/09/15 06:40:12;;;;;;;;;;;;;;;24.50;61.18;98611.44;4481648;31;34358;-63
2022/09/15 06:42:39;;;;;;;;;;;;;;;24.68;60.62;98613.25;4480953;31;34059;-64
2022/09/15 06:45:07;;;;;;;;;;;;;;;24.45;61.27;98617.59;4483849;31;33139;-63
2022/09/15 06:47:35;;;;;;;;;;;;;;;24.68;60.69;98614.09;4479951;31;32778;-64
2022/09/15 06:50:03;;;;;;;;;;;;;;;24.69;60.81;98609.44;4483388;31;33141;-64
2022/09/15 06:52:31;;;;;;;;;;;;;;;24.69;60.92;98607.56;4482095;31;34638;-62
2022/09/15 06:54:58;;;;;;;;;;;;;;;24.66;61.50;98610.78;4478841;31;33378;-68
2022/09/15 06:57:26;;;;;;;;;;;;;;;24.55;61.67;98614.28;4481740;31;35126;-71
2022/09/15 06:59:53;;;;;;;;;;;;;;;24.60;61.43;98609.81;4487107;31;34143;-64
2022/09/15 07:02:21;;;;;;;;;;;;;;;24.73;61.10;98614.25;4486737;31;33626;-64
2022/09/15 07:04:48;;;;;;;;;;;;;;;24.76;61.02;98615.69;4492056;31;31975;-64
2022/09/15 07:07:15;;;;;;;;;;;;;;;24.89;60.77;98622.84;4488047;31;35225;-64
2022/09/15 07:09:43;;;;;;;;;;;;;;;24.42;63.09;98625.44;4482288;31;34406;-65
2022/09/15 07:12:15;;;;;;;;;;;;;;;24.59;62.59;98623.69;4480598;31;33298;-65
2022/09/15 07:14:42;;;;;;;;;;;;;;;24.85;61.83;98633.44;4479997;31;34002;-65
2022/09/15 07:17:09;;;;;;;;;;;;;;;24.57;63.06;98637.63;4483951;31;33844;-65
2022/09/15 07:19:37;;;;;;;;;;;;;;;24.62;63.61;98626.81;4485985;31;32569;-65
2022/09/15 07:22:04;;;;;;;;;;;;;;;24.69;63.21;98634.06;4481162;31;34214;-64
2022/09/15 07:24:32;;;;;;;;;;;;;;;24.24;65.44;98627.09;4493151;31;33453;-65
2022/09/15 07:26:59;;;;;;;;;;;;;;;23.83;65.01;98633.28;4469320;32;32492;-64
2022/09/15 07:29:26;;;;;;;;;;;;;;;24.41;63.47;98641.00;4485068;31;34865;-64
2022/09/15 07:31:54;;;;;;;;;;;;;;;24.44;62.87;98640.53;4467162;31;815437;-65
2022/09/15 07:34:21;;;;;;;;;;;;;;;24.70;62.61;98647.53;4497433;31;33652;-65
2022/09/15 07:36:49;;;;;;;;;;;;;;;24.56;63.39;98640.59;4484143;31;34085;-65
2022/09/15 07:39:16;;;;;;;;;;;;;;;24.61;61.98;98641.56;4498230;31;35691;-65
2022/09/15 07:41:43;;;;;;;;;;;;;;;24.47;63.03;98645.56;4476902;31;32659;-65
2022/09/15 07:44:12;;;;;;;;;;;;;;;24.39;63.03;98624.78;4485464;31;33311;-65
2022/09/15 07:46:39;;;;;;;;;;;;;;;24.47;61.31;98629.16;4483858;31;34203;-65
2022/09/15 07:49:07;;;;;;;;;;;;;;;24.58;61.59;98641.19;4498328;31;35047;-65
2022/09/15 07:51:34;;;;;;;;;;;;;;;24.74;61.01;98635.06;4488305;31;33739;-65
2022/09/15 07:54:01;;;;;;;;;;;;;;;24.71;60.23;98638.25;4492680;31;33394;-65
2022/09/15 07:56:29;;;;;;;;;;;;;;;24.74;60.32;98640.53;4495956;31;33898;-65
2022/09/15 07:58:56;;;;;;;;;;;;;;;24.66;60.44;98649.06;4493129;31;33989;-65
2022/09/15 08:01:24;;;;;;;;;;;;;;;25.01;59.43;98653.81;4490682;31;32932;-65
2022/09/15 08:03:51;;;;;;;;;;;;;;;25.10;59.74;98647.78;4499415;31;33048;-65
2022/09/15 08:06:22;;;;;;;;;;;;;;;24.87;60.22;98640.31;4488395;31;32922;-65
2022/09/15 08:08:50;;;;;;;;;;;;;;;25.09;59.74;98648.00;4493991;31;33829;-65
2022/09/15 08:11:25;;;;;;;;;;;;;;;24.94;60.13;98645.69;4484664;31;34048;-65
2022/09/15 08:13:52;;;;;;;;;;;;;;;25.18;58.51;98645.78;4498528;31;32462;-65
2022/09/15 08:16:21;;;;;;;;;;;;;;;25.03;58.96;98647.03;4487735;31;35265;-65
2022/09/15 08:18:50;;;;;;;;;;;;;;;25.08;59.32;98657.28;4494532;31;34190;-65
2022/09/15 08:21:19;;;;;;;;;;;;;;;25.10;58.95;98658.72;4492419;31;34759;-65
2022/09/15 08:23:54;;;;;;;;;;;;;;;25.18;57.05;98648.53;4488100;31;33392;-65
2022/09/15 08:26:23;;;;;;;;;;;;;;;25.03;57.95;98640.72;4483032;31;33977;-65
2022/09/15 08:28:50;;;;;;;;;;;;;;;25.00;56.57;98644.75;4491662;31;34436;-65
2022/09/15 08:31:17;;;;;;;;;;;;;;;25.02;56.24;98642.63;4484449;31;33967;-65
2022/09/15 08:33:49;;;;;;;;;;;;;;;25.15;55.25;98641.59;4485886;31;33222;-66
2022/09/15 08:36:16;;;;;;;;;;;;;;;25.30;54.70;98636.50;4494110;31;35350;-65
2022/09/15 08:38:44;;;;;;;;;;;;;;;25.56;54.30;98629.72;4497859;31;34082;-65
2022/09/15 08:41:28;;;;;;;;;;;;;;;25.41;54.95;98625.78;4495169;31;32794;-66
2022/09/15 08:44:21;;;;;;;;;;;;;;;25.52;55.80;98628.53;4485084;31;34427;-64
2022/09/15 08:47:03;;;;;;;;;;;;;;;26.03;54.24;98628.84;4487068;31;35183;-64
2022/09/15 08:49:51;;;;;;;;;;;;;;;26.15;51.91;98615.94;4483898;31;34326;-64
2022/09/15 08:52:34;;;;;;;;;;;;;;;26.00;51.22;98613.75;4464310;31;32605;-64
2022/09/15 08:55:04;;;;;;;;;;;;;;;26.06;50.98;98609.16;4494034;31;32664;-63
2022/09/15 08:57:31;;;;;;;;;;;;;;;26.33;51.74;98609.47;4487751;31;35245;-64
2022/09/15 08:59:58;;;;;;;;;;;;;;;26.52;50.35;98603.78;4484582;31;34230;-64
2022/09/15 09:02:29;;;;;;;;;;;;;;;26.17;50.62;98600.09;4482531;31;34164;-64
2022/09/15 09:04:58;;;;;;;;;;;;;;;26.61;47.66;98599.56;4491241;31;31974;-65
2022/09/15 09:07:38;;;;;;;;;;;;;;;26.85;47.84;98600.28;4489638;31;34092;-65
2022/09/15 09:10:16;;;;;;;;;;;;;;;26.83;48.43;98595.03;4487078;31;34954;-65
2022/09/15 09:12:57;;;;;;;;;;;;;;;27.13;46.56;98600.25;4485547;31;34586;-65
2022/09/15 09:15:31;;;;;;;;;;;;;;;26.82;48.25;98590.63;4481621;31;33156;-66
2022/09/15 09:18:02;;;;;;;;;;;;;;;26.71;47.27;98588.78;4482104;31;33878;-65
2022/09/15 09:20:30;;;;;;;;;;;;;;;27.14;45.87;98587.34;4490215;31;34121;-65
2022/09/15 09:22:58;;;;;;;;;;;;;;;27.07;46.65;98583.91;4485033;31;35233;-65
2022/09/15 09:25:26;;;;;;;;;;;;;;;26.70;47.18;98587.09;4484726;31;33225;-65
2022/09/15 09:27:57;;;;;;;;;;;;;;;27.37;46.13;98591.81;4488296;31;32834;-66
2022/09/15 09:30:26;;;;;;;;;;;;;;;27.37;44.95;98583.56;4489170;31;34514;-66
2022/09/15 09:33:12;;;;;;;;;;;;;;;27.10;44.90;98580.66;4492572;31;33931;-66
2022/09/15 09:35:44;;;;;;;;;;;;;;;27.00;44.58;98575.84;4489219;31;33765;-66
2022/09/15 09:38:11;;;;;;;;;;;;;;;26.84;45.58;98582.16;4481987;31;34368;-66
2022/09/15 09:40:40;;;;;;;;;;;;;;;27.49;43.77;98578.81;4471814;31;35058;-65
2022/09/15 09:43:07;;;;;;;;;;;;;;;27.31;44.30;98581.81;4467100;31;33692;-66
2022/09/15 09:45:34;;;;;;;;;;;;;;;27.55;44.83;98583.28;4487617;31;33241;-66
2022/09/15 09:48:11;;;;;;;;;;;;;;;27.28;46.07;98572.16;4481786;31;34075;-65
2022/09/15 09:50:41;;;;;;;;;;;;;;;27.37;44.22;98564.34;4482981;31;34130;-66
2022/09/15 09:53:29;;;;;;;;;;;;;;;27.95;42.90;98559.38;4495312;31;33846;-66
2022/09/15 09:56:16;;;;;;;;;;;;;;;28.10;41.29;98552.13;4484794;31;31959;-66
2022/09/15 09:58:43;;;;;;;;;;;;;;;27.71;42.01;98553.28;4490806;31;33966;-65
2022/09/15 10:01:15;;;;;;;;;;;;;;;27.51;43.54;98549.16;4479056;31;33850;-65
2022/09/15 10:03:44;;;;;;;;;;;;;;;28.22;41.59;98541.00;4473280;31;34950;-64
2022/09/15 10:06:14;;;;;;;;;;;;;;;27.86;42.14;98525.97;4488489;31;34603;-64
2022/09/15 10:08:51;;;;;;;;;;;;;;;27.94;41.93;98520.03;4484411;31;34257;-64
2022/09/15 10:11:19;;;;;;;;;;;;;;;28.12;41.28;98520.78;4471470;31;32914;-66
2022/09/15 10:13:51;;;;;;;;;;;;;;;28.24;41.64;98511.28;4474421;31;34058;-63
2022/09/15 10:16:19;;;;;;;;;;;;;;;28.34;41.08;98507.81;4477867;31;33264;-64
2022/09/15 10:18:48;;;;;;;;;;;;;;;28.34;41.05;98505.06;4479612;32;34254;-64
2022/09/15 10:21:23;;;;;;;;;;;;;;;28.48;41.04;98495.31;4488178;31;34064;-64
2022/09/15 10:23:51;;;;;;;;;;;;;;;28.67;41.38;98478.41;4487243;31;34203;-63
2022/09/15 10:26:23;;;;;;;;;;;;;;;28.40;42.08;98482.03;4496635;31;34791;-64
2022/09/15 10:29:09;;;;;;;;;;;;;;;28.13;41.87;98481.19;4470400;32;34176;-65
2022/09/15 10:31:36;;;;;;;;;;;;;;;28.17;43.35;98474.91;4487455;31;32828;-64
2022/09/15 10:34:22;;;;;;;;;;;;;;;28.14;43.10;98480.09;4493279;31;33827;-64
2022/09/15 10:36:51;;;;;;;;;;;;;;;28.18;42.19;98483.97;4487989;31;34400;-64
2022/09/15 10:39:27;;;;;;;;;;;;;;;28.12;42.28;98479.53;4496229;31;34857;-64
2022/09/15 10:42:01;;;;;;;;;;;;;;;28.17;41.78;98476.84;4495622;31;34291;-64
2022/09/15 10:44:28;;;;;;;;;;;;;;;28.15;42.52;98488.06;4474283;31;31773;-64
2022/09/15 10:46:59;;;;;;;;;;;;;;;27.49;43.61;98485.38;4496325;31;34163;-64
2022/09/15 10:49:26;;;;;;;;;;;;;;;27.39;43.58;98488.00;4492238;31;34300;-64
2022/09/15 10:51:53;;;;;;;;;;;;;;;27.58;42.98;98488.53;4496354;31;32979;-64
2022/09/15 10:54:35;;;;;;;;;;;;;;;27.97;42.67;98492.03;4500022;31;33614;-64
2022/09/15 10:57:09;;;;;;;;;;;;;;;27.37;44.08;98501.16;4493744;31;32085;-64
2022/09/15 10:59:43;;;;;;;;;;;;;;;27.24;44.07;98501.50;4486284;31;35222;-64
2022/09/15 11:02:27;;;;;;;;;;;;;;;27.00;44.12;98498.09;4484137;31;35205;-64
2022/09/15 11:04:55;;;;;;;;;;;;;;;27.22;44.10;98496.25;4471013;31;33492;-64
2022/09/15 11:07:22;;;;;;;;;;;;;;;27.37;44.93;98496.47;4483966;31;32104;-64
2022/09/15 11:09:56;;;;;;;;;;;;;;;26.87;47.96;98494.63;4484615;31;34176;-64
2022/09/15 11:12:45;;;;;;;;;;;;;;;27.18;49.68;98479.47;4487736;31;34525;-64
2022/09/15 11:15:32;;;;;;;;;;;;;;;26.60;52.50;98494.47;4481296;31;34249;-64
2022/09/15 11:18:18;;;;;;;;;;;;;;;26.34;54.05;98487.69;4486338;31;34229;-64
2022/09/15 11:20:45;;;;;;;;;;;;;;;26.24;54.14;98491.06;4482539;31;34030;-64
2022/09/15 11:23:17;;;;;;;;;;;;;;;26.56;53.38;98498.78;4485764;31;34676;-64
2022/09/15 11:25:46;;;;;;;;;;;;;;;26.52;53.53;98489.41;4486715;31;33949;-64
2022/09/15 11:28:34;;;;;;;;;;;;;;;26.53;53.40;98492.97;4484284;31;34711;-64
2022/09/15 11:31:02;;;;;;;;;;;;;;;26.80;52.57;98491.22;4482772;31;33472;-65
2022/09/15 11:33:31;;;;;;;;;;;;;;;27.21;51.67;98483.63;4473740;31;34813;-65
2022/09/15 11:36:04;;;;;;;;;;;;;;;27.34;51.25;98479.69;4474210;31;33869;-64
2022/09/15 11:38:33;;;;;;;;;;;;;;;27.09;51.93;98472.69;4475544;31;33685;-65
2022/09/15 11:41:15;;;;;;;;;;;;;;;26.73;52.70;98459.53;4489350;31;35091;-64
2022/09/15 11:43:49;;;;;;;;;;;;;;;26.25;53.74;98450.75;4487978;31;34148;-65
2022/09/15 11:46:18;;;;;;;;;;;;;;;26.32;53.78;98442.38;4464314;31;32475;-65
2022/09/15 11:48:46;;;;;;;;;;;;;;;26.14;54.66;98433.31;4477200;31;33389;-65
2022/09/15 11:51:14;;;;;;;;;;;;;;;26.20;54.65;98424.09;4487710;31;34209;-65
2022/09/15 11:53:49;;;;;;;;;;;;;;;26.58;54.04;98407.97;4467703;31;34701;-65
2022/09/15 11:56:18;;;;;;;;;;;;;;;25.96;55.90;98398.72;4472836;31;33435;-64
2022/09/15 11:59:00;;;;;;;;;;;;;;;26.40;54.88;98406.31;4490416;31;33284;-66
2022/09/15 12:01:29;;;;;;;;;;;;;;;26.42;54.75;98412.38;4487596;31;33822;-64
2022/09/15 12:04:02;;;;;;;;;;;;;;;26.36;55.01;98436.16;4456605;31;34556;-64
2022/09/15 12:06:31;;;;;;;;;;;;;;;27.02;53.39;98436.34;4475157;31;32570;-63
2022/09/15 12:09:00;;;;;;;;;;;;;;;26.93;53.47;98443.38;4484262;31;33673;-65
2022/09/15 12:11:29;;;;;;;;;;;;;;;27.05;53.16;98441.34;4482103;31;33938;-64
2022/09/15 12:13:57;;;;;;;;;;;;;;;27.46;52.03;98430.94;4483604;31;35464;-66
2022/09/15 12:16:24;;;;;;;;;;;;;;;27.50;51.35;98439.50;4481949;31;34241;-65
2022/09/15 12:19:00;;;;;;;;;;;;;;;27.50;51.43;98434.81;4475394;31;33852;-65
2022/09/15 12:21:54;;;;;;;;;;;;;;;27.62;51.07;98420.97;4471310;31;33968;-65
2022/09/15 12:24:24;;;;;;;;;;;;;;;27.38;51.46;98406.66;4465373;31;34409;-65
2022/09/15 12:26:51;;;;;;;;;;;;;;;27.51;51.28;98400.78;4476898;31;33856;-65
2022/09/15 12:29:25;;;;;;;;;;;;;;;27.64;51.53;98396.81;4478391;31;33439;-66
2022/09/15 12:32:10;;;;;;;;;;;;;;;27.68;51.14;98397.12;4485517;31;34034;-65
2022/09/15 12:34:38;;;;;;;;;;;;;;;27.66;51.09;98394.59;4489892;31;34515;-65
2022/09/15 12:37:14;;;;;;;;;;;;;;;27.94;50.62;98392.72;4485583;31;35590;-65
2022/09/15 12:39:42;;;;;;;;;;;;;;;27.98;50.63;98394.69;4466780;31;31697;-65
2022/09/15 12:42:23;;;;;;;;;;;;;;;28.02;50.60;98395.00;4491634;31;33894;-65
2022/09/15 12:44:54;;;;;;;;;;;;;;;27.21;52.89;98389.41;4476558;31;32732;-65
2022/09/15 12:47:25;;;;;;;;;;;;;;;26.56;57.17;98375.31;4484522;31;33166;-65
2022/09/15 12:49:53;;;;;;;;;;;;;;;26.47;57.41;98396.81;4474884;31;32993;-66
2022/09/15 12:52:20;;;;;;;;;;;;;;;25.90;57.52;98432.59;4493085;31;34089;-66
2022/09/15 12:54:52;;;;;;;;;;;;;;;25.43;53.65;98459.31;4487942;31;33945;-65
2022/09/15 12:57:24;;;;;;;;;;;;;;;25.13;54.76;98467.69;4483600;31;34272;-64
2022/09/15 13:00:10;;;;;;;;;;;;;;;24.36;58.61;98442.03;4477755;31;32262;-66
2022/09/15 13:02:42;;;;;;;;;;;;;;;24.27;57.86;98440.72;4479287;31;32483;-65